sensor_id;sensor_type;location;lat;lon;timestamp;P1;durP1;ratioP1;P2;durP2;ratioP2
6973;SDS011;3527;52.376;8.990;2023-09-30T00:01:01;18.10;;;5.87;;
6973;SDS011;3527;52.376;8.990;2023-09-30T00:03:28;17.07;;;4.80;;
6973;SDS011;3527;52.376;8.990;2023-09-30T00:05:55;12.83;;;4.43;;
6973;SDS011;3527;52.376;8.990;2023-09-30T00:08:22;21.87;;;4.90;;
6973;SDS011;3527;52.376;8.990;2023-09-30T00:10:49;12.93;;;4.97;;
6973;SDS011;3527;52.376;8.990;2023-09-30T00:13:16;14.27;;;4.77;;
6973;SDS011;3527;52.376;8.990;2023-09-30T00:15:42;18.37;;;4.70;;
6973;SDS011;3527;52.376;8.990;2023-09-30T00:18:09;20.53;;;4.80;;
6973;SDS011;3527;52.376;8.990;2023-09-30T00:20:37;15.17;;;5.13;;
6973;SDS011;3527;52.376;8.990;2023-09-30T00:23:04;14.23;;;4.93;;
6973;SDS011;3527;52.376;8.990;2023-09-30T00:25:32;16.80;;;5.23;;
6973;SDS011;3527;52.376;8.990;2023-09-30T00:27:59;13.37;;;4.80;;
6973;SDS011;3527;52.376;8.990;2023-09-30T00:30:26;16.67;;;5.40;;
6973;SDS011;3527;52.376;8.990;2023-09-30T00:32:53;11.83;;;4.50;;
6973;SDS011;3527;52.376;8.990;2023-09-30T00:35:20;14.77;;;5.13;;
6973;SDS011;3527;52.376;8.990;2023-09-30T00:37:47;16.90;;;5.70;;
6973;SDS011;3527;52.376;8.990;2023-09-30T00:40:14;13.50;;;4.70;;
6973;SDS011;3527;52.376;8.990;2023-09-30T00:42:41;17.20;;;5.20;;
6973;SDS011;3527;52.376;8.990;2023-09-30T00:45:08;12.40;;;4.83;;
6973;SDS011;3527;52.376;8.990;2023-09-30T00:47:38;15.53;;;5.10;;
6973;SDS011;3527;52.376;8.990;2023-09-30T00:50:07;22.97;;;5.73;;
6973;SDS011;3527;52.376;8.990;2023-09-30T00:52:35;15.60;;;4.70;;
6973;SDS011;3527;52.376;8.990;2023-09-30T00:55:02;10.90;;;4.67;;
6973;SDS011;3527;52.376;8.990;2023-09-30T00:57:30;14.37;;;4.60;;
6973;SDS011;3527;52.376;8.990;2023-09-30T00:59:57;17.07;;;5.53;;
6973;SDS011;3527;52.376;8.990;2023-09-30T01:02:25;16.83;;;5.00;;
6973;SDS011;3527;52.376;8.990;2023-09-30T01:04:52;12.43;;;4.77;;
6973;SDS011;3527;52.376;8.990;2023-09-30T01:07:19;19.30;;;5.97;;
6973;SDS011;3527;52.376;8.990;2023-09-30T01:09:48;14.33;;;5.50;;
6973;SDS011;3527;52.376;8.990;2023-09-30T01:12:17;17.10;;;5.73;;
6973;SDS011;3527;52.376;8.990;2023-09-30T01:14:44;16.83;;;5.23;;
6973;SDS011;3527;52.376;8.990;2023-09-30T01:17:11;17.47;;;5.80;;
6973;SDS011;3527;52.376;8.990;2023-09-30T01:19:40;15.97;;;4.67;;
6973;SDS011;3527;52.376;8.990;2023-09-30T01:22:10;19.80;;;5.43;;
6973;SDS011;3527;52.376;8.990;2023-09-30T01:24:38;13.87;;;5.33;;
6973;SDS011;3527;52.376;8.990;2023-09-30T01:27:08;14.17;;;5.80;;
6973;SDS011;3527;52.376;8.990;2023-09-30T01:29:36;14.60;;;5.33;;
6973;SDS011;3527;52.376;8.990;2023-09-30T01:32:05;14.60;;;5.47;;
6973;SDS011;3527;52.376;8.990;2023-09-30T01:34:36;19.63;;;5.83;;
6973;SDS011;3527;52.376;8.990;2023-09-30T01:37:03;16.17;;;6.03;;
6973;SDS011;3527;52.376;8.990;2023-09-30T01:39:31;17.67;;;6.07;;
6973;SDS011;3527;52.376;8.990;2023-09-30T01:41:59;18.20;;;6.47;;
6973;SDS011;3527;52.376;8.990;2023-09-30T01:44:26;13.07;;;5.77;;
6973;SDS011;3527;52.376;8.990;2023-09-30T01:46:53;22.53;;;7.17;;
6973;SDS011;3527;52.376;8.990;2023-09-30T01:49:20;27.83;;;7.63;;
6973;SDS011;3527;52.376;8.990;2023-09-30T01:51:50;21.93;;;6.17;;
6973;SDS011;3527;52.376;8.990;2023-09-30T01:54:17;19.37;;;6.90;;
6973;SDS011;3527;52.376;8.990;2023-09-30T01:56:44;21.30;;;7.63;;
6973;SDS011;3527;52.376;8.990;2023-09-30T01:59:11;19.90;;;7.53;;
6973;SDS011;3527;52.376;8.990;2023-09-30T02:01:37;19.17;;;7.00;;
6973;SDS011;3527;52.376;8.990;2023-09-30T02:04:04;19.33;;;6.70;;
6973;SDS011;3527;52.376;8.990;2023-09-30T02:06:33;15.70;;;6.13;;
6973;SDS011;3527;52.376;8.990;2023-09-30T02:09:01;23.30;;;6.90;;
6973;SDS011;3527;52.376;8.990;2023-09-30T02:11:29;16.60;;;6.50;;
6973;SDS011;3527;52.376;8.990;2023-09-30T02:13:56;16.73;;;5.97;;
6973;SDS011;3527;52.376;8.990;2023-09-30T02:16:23;17.73;;;6.57;;
6973;SDS011;3527;52.376;8.990;2023-09-30T02:18:51;21.30;;;6.90;;
6973;SDS011;3527;52.376;8.990;2023-09-30T02:21:18;16.17;;;5.87;;
6973;SDS011;3527;52.376;8.990;2023-09-30T02:23:45;19.30;;;5.97;;
6973;SDS011;3527;52.376;8.990;2023-09-30T02:26:14;17.63;;;5.73;;
6973;SDS011;3527;52.376;8.990;2023-09-30T02:28:41;19.50;;;6.87;;
6973;SDS011;3527;52.376;8.990;2023-09-30T02:31:08;21.17;;;6.60;;
6973;SDS011;3527;52.376;8.990;2023-09-30T02:33:35;18.80;;;6.23;;
6973;SDS011;3527;52.376;8.990;2023-09-30T02:36:06;19.00;;;6.83;;
6973;SDS011;3527;52.376;8.990;2023-09-30T02:38:34;14.50;;;5.83;;
6973;SDS011;3527;52.376;8.990;2023-09-30T02:41:03;14.90;;;5.77;;
6973;SDS011;3527;52.376;8.990;2023-09-30T02:43:31;20.03;;;6.27;;
6973;SDS011;3527;52.376;8.990;2023-09-30T02:45:59;17.03;;;6.13;;
6973;SDS011;3527;52.376;8.990;2023-09-30T02:48:26;15.77;;;6.23;;
6973;SDS011;3527;52.376;8.990;2023-09-30T02:50:53;20.43;;;6.67;;
6973;SDS011;3527;52.376;8.990;2023-09-30T02:53:21;14.80;;;5.50;;
6973;SDS011;3527;52.376;8.990;2023-09-30T02:55:48;15.80;;;6.20;;
6973;SDS011;3527;52.376;8.990;2023-09-30T02:58:16;13.93;;;6.07;;
6973;SDS011;3527;52.376;8.990;2023-09-30T03:00:47;21.60;;;7.13;;
6973;SDS011;3527;52.376;8.990;2023-09-30T03:03:16;21.93;;;7.23;;
6973;SDS011;3527;52.376;8.990;2023-09-30T03:05:43;15.80;;;6.03;;
6973;SDS011;3527;52.376;8.990;2023-09-30T03:08:11;20.73;;;6.80;;
6973;SDS011;3527;52.376;8.990;2023-09-30T03:10:38;22.47;;;6.93;;
6973;SDS011;3527;52.376;8.990;2023-09-30T03:13:07;17.43;;;6.10;;
6973;SDS011;3527;52.376;8.990;2023-09-30T03:15:35;15.27;;;6.90;;
6973;SDS011;3527;52.376;8.990;2023-09-30T03:18:02;16.73;;;7.07;;
6973;SDS011;3527;52.376;8.990;2023-09-30T03:20:30;25.80;;;7.13;;
6973;SDS011;3527;52.376;8.990;2023-09-30T03:22:57;17.47;;;7.33;;
6973;SDS011;3527;52.376;8.990;2023-09-30T03:25:25;20.73;;;7.20;;
6973;SDS011;3527;52.376;8.990;2023-09-30T03:27:52;20.00;;;7.67;;
6973;SDS011;3527;52.376;8.990;2023-09-30T03:30:19;17.13;;;7.30;;
6973;SDS011;3527;52.376;8.990;2023-09-30T03:32:47;16.23;;;7.40;;
6973;SDS011;3527;52.376;8.990;2023-09-30T03:35:14;16.73;;;7.03;;
6973;SDS011;3527;52.376;8.990;2023-09-30T03:37:45;17.23;;;7.30;;
6973;SDS011;3527;52.376;8.990;2023-09-30T03:40:13;25.30;;;8.00;;
6973;SDS011;3527;52.376;8.990;2023-09-30T03:42:46;21.50;;;7.00;;
6973;SDS011;3527;52.376;8.990;2023-09-30T03:45:16;20.47;;;7.50;;
6973;SDS011;3527;52.376;8.990;2023-09-30T03:47:44;24.10;;;7.83;;
6973;SDS011;3527;52.376;8.990;2023-09-30T03:50:12;20.83;;;7.07;;
6973;SDS011;3527;52.376;8.990;2023-09-30T03:52:42;19.60;;;7.40;;
6973;SDS011;3527;52.376;8.990;2023-09-30T03:55:14;21.27;;;7.63;;
6973;SDS011;3527;52.376;8.990;2023-09-30T03:57:43;18.90;;;6.97;;
6973;SDS011;3527;52.376;8.990;2023-09-30T04:00:14;17.70;;;7.13;;
6973;SDS011;3527;52.376;8.990;2023-09-30T04:02:48;16.53;;;7.30;;
6973;SDS011;3527;52.376;8.990;2023-09-30T04:05:17;21.40;;;7.73;;
6973;SDS011;3527;52.376;8.990;2023-09-30T04:07:46;22.10;;;7.33;;
6973;SDS011;3527;52.376;8.990;2023-09-30T04:10:13;23.33;;;7.80;;
6973;SDS011;3527;52.376;8.990;2023-09-30T04:12:41;25.87;;;8.17;;
6973;SDS011;3527;52.376;8.990;2023-09-30T04:15:08;21.50;;;7.73;;
6973;SDS011;3527;52.376;8.990;2023-09-30T04:17:58;19.43;;;7.83;;
6973;SDS011;3527;52.376;8.990;2023-09-30T04:20:28;21.40;;;8.03;;
6973;SDS011;3527;52.376;8.990;2023-09-30T04:23:16;16.33;;;7.47;;
6973;SDS011;3527;52.376;8.990;2023-09-30T04:25:55;19.17;;;8.00;;
6973;SDS011;3527;52.376;8.990;2023-09-30T04:28:42;23.00;;;7.13;;
6973;SDS011;3527;52.376;8.990;2023-09-30T04:31:16;16.73;;;6.77;;
6973;SDS011;3527;52.376;8.990;2023-09-30T04:33:45;19.43;;;7.43;;
6973;SDS011;3527;52.376;8.990;2023-09-30T04:36:12;21.57;;;7.20;;
6973;SDS011;3527;52.376;8.990;2023-09-30T04:38:38;25.17;;;7.23;;
6973;SDS011;3527;52.376;8.990;2023-09-30T04:41:05;23.63;;;7.80;;
6973;SDS011;3527;52.376;8.990;2023-09-30T04:43:34;23.50;;;7.40;;
6973;SDS011;3527;52.376;8.990;2023-09-30T04:46:01;24.83;;;8.37;;
6973;SDS011;3527;52.376;8.990;2023-09-30T04:48:28;22.90;;;7.27;;
6973;SDS011;3527;52.376;8.990;2023-09-30T04:50:55;16.90;;;7.83;;
6973;SDS011;3527;52.376;8.990;2023-09-30T04:53:21;19.40;;;6.97;;
6973;SDS011;3527;52.376;8.990;2023-09-30T04:55:49;20.00;;;7.23;;
6973;SDS011;3527;52.376;8.990;2023-09-30T04:58:16;24.43;;;8.00;;
6973;SDS011;3527;52.376;8.990;2023-09-30T05:00:43;26.00;;;7.50;;
6973;SDS011;3527;52.376;8.990;2023-09-30T05:03:10;19.27;;;8.27;;
6973;SDS011;3527;52.376;8.990;2023-09-30T05:05:38;21.13;;;8.17;;
6973;SDS011;3527;52.376;8.990;2023-09-30T05:08:04;21.83;;;7.80;;
6973;SDS011;3527;52.376;8.990;2023-09-30T05:10:32;22.07;;;8.03;;
6973;SDS011;3527;52.376;8.990;2023-09-30T05:13:00;20.97;;;7.97;;
6973;SDS011;3527;52.376;8.990;2023-09-30T05:15:27;20.70;;;7.17;;
6973;SDS011;3527;52.376;8.990;2023-09-30T05:17:56;19.37;;;7.27;;
6973;SDS011;3527;52.376;8.990;2023-09-30T05:20:22;24.47;;;8.37;;
6973;SDS011;3527;52.376;8.990;2023-09-30T05:22:50;20.70;;;7.47;;
6973;SDS011;3527;52.376;8.990;2023-09-30T05:25:17;22.63;;;7.47;;
6973;SDS011;3527;52.376;8.990;2023-09-30T05:27:45;29.03;;;7.80;;
6973;SDS011;3527;52.376;8.990;2023-09-30T05:30:14;18.43;;;7.60;;
6973;SDS011;3527;52.376;8.990;2023-09-30T05:32:42;21.43;;;7.57;;
6973;SDS011;3527;52.376;8.990;2023-09-30T05:35:09;19.77;;;7.43;;
6973;SDS011;3527;52.376;8.990;2023-09-30T05:37:40;17.90;;;7.07;;
6973;SDS011;3527;52.376;8.990;2023-09-30T05:40:07;19.70;;;6.70;;
6973;SDS011;3527;52.376;8.990;2023-09-30T05:42:56;22.30;;;8.17;;
6973;SDS011;3527;52.376;8.990;2023-09-30T05:45:25;23.97;;;8.50;;
6973;SDS011;3527;52.376;8.990;2023-09-30T05:47:54;20.13;;;7.07;;
6973;SDS011;3527;52.376;8.990;2023-09-30T05:50:23;19.13;;;7.07;;
6973;SDS011;3527;52.376;8.990;2023-09-30T05:52:54;22.80;;;7.63;;
6973;SDS011;3527;52.376;8.990;2023-09-30T05:55:22;19.60;;;7.67;;
6973;SDS011;3527;52.376;8.990;2023-09-30T05:57:49;16.17;;;7.53;;
6973;SDS011;3527;52.376;8.990;2023-09-30T06:00:17;21.37;;;7.73;;
6973;SDS011;3527;52.376;8.990;2023-09-30T06:02:49;18.80;;;7.60;;
6973;SDS011;3527;52.376;8.990;2023-09-30T06:05:18;16.93;;;7.07;;
6973;SDS011;3527;52.376;8.990;2023-09-30T06:07:49;19.93;;;7.43;;
6973;SDS011;3527;52.376;8.990;2023-09-30T06:10:16;17.57;;;6.87;;
6973;SDS011;3527;52.376;8.990;2023-09-30T06:12:49;21.27;;;6.50;;
6973;SDS011;3527;52.376;8.990;2023-09-30T06:15:24;17.03;;;7.63;;
6973;SDS011;3527;52.376;8.990;2023-09-30T06:17:56;20.80;;;7.93;;
6973;SDS011;3527;52.376;8.990;2023-09-30T06:20:24;20.60;;;7.10;;
6973;SDS011;3527;52.376;8.990;2023-09-30T06:22:54;20.13;;;7.03;;
6973;SDS011;3527;52.376;8.990;2023-09-30T06:25:22;19.17;;;6.47;;
6973;SDS011;3527;52.376;8.990;2023-09-30T06:27:51;22.97;;;7.43;;
6973;SDS011;3527;52.376;8.990;2023-09-30T06:30:18;21.07;;;6.67;;
6973;SDS011;3527;52.376;8.990;2023-09-30T06:32:47;16.77;;;6.80;;
6973;SDS011;3527;52.376;8.990;2023-09-30T06:35:14;17.67;;;6.73;;
6973;SDS011;3527;52.376;8.990;2023-09-30T06:37:41;16.67;;;6.80;;
6973;SDS011;3527;52.376;8.990;2023-09-30T06:40:09;16.00;;;6.70;;
6973;SDS011;3527;52.376;8.990;2023-09-30T06:42:39;14.50;;;6.40;;
6973;SDS011;3527;52.376;8.990;2023-09-30T06:45:07;13.20;;;6.33;;
6973;SDS011;3527;52.376;8.990;2023-09-30T06:47:34;20.53;;;6.73;;
6973;SDS011;3527;52.376;8.990;2023-09-30T06:50:04;17.73;;;6.57;;
6973;SDS011;3527;52.376;8.990;2023-09-30T06:52:35;12.80;;;5.90;;
6973;SDS011;3527;52.376;8.990;2023-09-30T06:55:05;20.50;;;6.87;;
6973;SDS011;3527;52.376;8.990;2023-09-30T06:57:36;16.23;;;6.40;;
6973;SDS011;3527;52.376;8.990;2023-09-30T07:00:07;15.53;;;6.20;;
6973;SDS011;3527;52.376;8.990;2023-09-30T07:02:36;20.87;;;6.37;;
6973;SDS011;3527;52.376;8.990;2023-09-30T07:05:09;18.90;;;6.47;;
6973;SDS011;3527;52.376;8.990;2023-09-30T07:07:38;20.57;;;6.47;;
6973;SDS011;3527;52.376;8.990;2023-09-30T07:10:06;16.73;;;5.70;;
6973;SDS011;3527;52.376;8.990;2023-09-30T07:12:34;14.23;;;5.93;;
6973;SDS011;3527;52.376;8.990;2023-09-30T07:15:03;16.93;;;5.60;;
6973;SDS011;3527;52.376;8.990;2023-09-30T07:17:34;11.17;;;5.77;;
6973;SDS011;3527;52.376;8.990;2023-09-30T07:20:02;13.57;;;4.83;;
6973;SDS011;3527;52.376;8.990;2023-09-30T07:22:31;14.43;;;5.50;;
6973;SDS011;3527;52.376;8.990;2023-09-30T07:25:15;15.77;;;5.63;;
6973;SDS011;3527;52.376;8.990;2023-09-30T07:27:43;19.50;;;6.20;;
6973;SDS011;3527;52.376;8.990;2023-09-30T07:30:14;12.03;;;5.30;;
6973;SDS011;3527;52.376;8.990;2023-09-30T07:32:42;17.47;;;5.47;;
6973;SDS011;3527;52.376;8.990;2023-09-30T07:35:10;14.27;;;6.10;;
6973;SDS011;3527;52.376;8.990;2023-09-30T07:37:38;13.23;;;5.20;;
6973;SDS011;3527;52.376;8.990;2023-09-30T07:40:05;12.17;;;5.70;;
6973;SDS011;3527;52.376;8.990;2023-09-30T07:42:32;13.43;;;5.13;;
6973;SDS011;3527;52.376;8.990;2023-09-30T07:45:00;14.07;;;5.83;;
6973;SDS011;3527;52.376;8.990;2023-09-30T07:47:27;15.10;;;5.23;;
6973;SDS011;3527;52.376;8.990;2023-09-30T07:49:54;14.67;;;4.80;;
6973;SDS011;3527;52.376;8.990;2023-09-30T07:52:21;12.73;;;5.23;;
6973;SDS011;3527;52.376;8.990;2023-09-30T07:54:47;14.57;;;5.57;;
6973;SDS011;3527;52.376;8.990;2023-09-30T07:57:14;16.57;;;5.87;;
6973;SDS011;3527;52.376;8.990;2023-09-30T07:59:41;11.60;;;5.47;;
6973;SDS011;3527;52.376;8.990;2023-09-30T08:02:08;14.10;;;5.87;;
6973;SDS011;3527;52.376;8.990;2023-09-30T08:04:35;13.13;;;5.27;;
6973;SDS011;3527;52.376;8.990;2023-09-30T08:07:03;18.23;;;5.90;;
6973;SDS011;3527;52.376;8.990;2023-09-30T08:09:30;11.20;;;5.33;;
6973;SDS011;3527;52.376;8.990;2023-09-30T08:11:56;15.07;;;5.67;;
6973;SDS011;3527;52.376;8.990;2023-09-30T08:14:24;11.53;;;4.87;;
6973;SDS011;3527;52.376;8.990;2023-09-30T08:16:52;15.63;;;5.07;;
6973;SDS011;3527;52.376;8.990;2023-09-30T08:19:19;12.87;;;5.07;;
6973;SDS011;3527;52.376;8.990;2023-09-30T08:21:47;16.60;;;5.27;;
6973;SDS011;3527;52.376;8.990;2023-09-30T08:24:14;11.33;;;4.77;;
6973;SDS011;3527;52.376;8.990;2023-09-30T08:26:41;13.53;;;4.87;;
6973;SDS011;3527;52.376;8.990;2023-09-30T08:29:08;15.30;;;5.10;;
6973;SDS011;3527;52.376;8.990;2023-09-30T08:31:34;11.67;;;4.90;;
6973;SDS011;3527;52.376;8.990;2023-09-30T08:34:01;12.07;;;4.13;;
6973;SDS011;3527;52.376;8.990;2023-09-30T08:36:30;11.53;;;4.50;;
6973;SDS011;3527;52.376;8.990;2023-09-30T08:38:57;12.83;;;4.57;;
6973;SDS011;3527;52.376;8.990;2023-09-30T08:41:32;10.97;;;4.27;;
6973;SDS011;3527;52.376;8.990;2023-09-30T08:44:00;9.23;;;4.20;;
6973;SDS011;3527;52.376;8.990;2023-09-30T08:46:31;7.83;;;3.70;;
6973;SDS011;3527;52.376;8.990;2023-09-30T08:49:00;12.67;;;4.07;;
6973;SDS011;3527;52.376;8.990;2023-09-30T08:51:28;11.67;;;4.07;;
6973;SDS011;3527;52.376;8.990;2023-09-30T08:53:57;9.83;;;3.80;;
6973;SDS011;3527;52.376;8.990;2023-09-30T08:56:28;13.07;;;4.33;;
6973;SDS011;3527;52.376;8.990;2023-09-30T08:58:57;10.93;;;3.90;;
6973;SDS011;3527;52.376;8.990;2023-09-30T09:01:29;11.03;;;4.10;;
6973;SDS011;3527;52.376;8.990;2023-09-30T09:03:57;11.33;;;4.10;;
6973;SDS011;3527;52.376;8.990;2023-09-30T09:06:25;9.33;;;4.03;;
6973;SDS011;3527;52.376;8.990;2023-09-30T09:08:52;6.77;;;3.83;;
6973;SDS011;3527;52.376;8.990;2023-09-30T09:11:19;12.83;;;4.70;;
6973;SDS011;3527;52.376;8.990;2023-09-30T09:13:48;12.67;;;4.57;;
6973;SDS011;3527;52.376;8.990;2023-09-30T09:16:18;8.93;;;4.00;;
6973;SDS011;3527;52.376;8.990;2023-09-30T09:18:45;9.50;;;3.90;;
6973;SDS011;3527;52.376;8.990;2023-09-30T09:21:16;9.33;;;3.83;;
6973;SDS011;3527;52.376;8.990;2023-09-30T09:23:45;11.20;;;4.10;;
6973;SDS011;3527;52.376;8.990;2023-09-30T09:26:29;9.10;;;3.67;;
6973;SDS011;3527;52.376;8.990;2023-09-30T09:28:59;10.10;;;4.13;;
6973;SDS011;3527;52.376;8.990;2023-09-30T09:31:33;7.83;;;3.77;;
6973;SDS011;3527;52.376;8.990;2023-09-30T09:34:02;8.53;;;3.83;;
6973;SDS011;3527;52.376;8.990;2023-09-30T09:36:40;9.37;;;3.80;;
6973;SDS011;3527;52.376;8.990;2023-09-30T09:39:10;8.00;;;4.00;;
6973;SDS011;3527;52.376;8.990;2023-09-30T09:41:50;10.90;;;3.63;;
6973;SDS011;3527;52.376;8.990;2023-09-30T09:44:20;9.50;;;3.53;;
6973;SDS011;3527;52.376;8.990;2023-09-30T09:46:48;9.60;;;3.60;;
6973;SDS011;3527;52.376;8.990;2023-09-30T09:49:19;9.17;;;3.67;;
6973;SDS011;3527;52.376;8.990;2023-09-30T09:51:48;10.83;;;3.97;;
6973;SDS011;3527;52.376;8.990;2023-09-30T09:54:16;8.70;;;3.90;;
6973;SDS011;3527;52.376;8.990;2023-09-30T09:56:44;11.60;;;4.33;;
6973;SDS011;3527;52.376;8.990;2023-09-30T09:59:11;10.27;;;4.27;;
6973;SDS011;3527;52.376;8.990;2023-09-30T10:01:39;9.07;;;3.97;;
6973;SDS011;3527;52.376;8.990;2023-09-30T10:04:07;10.63;;;4.33;;
6973;SDS011;3527;52.376;8.990;2023-09-30T10:06:34;8.17;;;3.40;;
6973;SDS011;3527;52.376;8.990;2023-09-30T10:09:07;12.40;;;4.40;;
6973;SDS011;3527;52.376;8.990;2023-09-30T10:11:38;7.23;;;3.23;;
6973;SDS011;3527;52.376;8.990;2023-09-30T10:14:33;6.63;;;3.27;;
6973;SDS011;3527;52.376;8.990;2023-09-30T10:17:20;10.27;;;3.90;;
6973;SDS011;3527;52.376;8.990;2023-09-30T10:20:04;7.77;;;3.50;;
6973;SDS011;3527;52.376;8.990;2023-09-30T10:22:35;8.40;;;3.07;;
6973;SDS011;3527;52.376;8.990;2023-09-30T10:25:02;9.77;;;3.60;;
6973;SDS011;3527;52.376;8.990;2023-09-30T10:33:34;9.43;;;2.83;;
6973;SDS011;3527;52.376;8.990;2023-09-30T10:36:02;8.73;;;3.07;;
6973;SDS011;3527;52.376;8.990;2023-09-30T10:41:00;7.70;;;3.30;;
6973;SDS011;3527;52.376;8.990;2023-09-30T10:45:56;10.30;;;3.50;;
6973;SDS011;3527;52.376;8.990;2023-09-30T10:50:59;9.50;;;3.30;;
6973;SDS011;3527;52.376;8.990;2023-09-30T10:53:30;6.77;;;2.90;;
6973;SDS011;3527;52.376;8.990;2023-09-30T10:55:58;6.50;;;3.17;;
6973;SDS011;3527;52.376;8.990;2023-09-30T10:58:42;9.47;;;3.60;;
6973;SDS011;3527;52.376;8.990;2023-09-30T11:01:18;8.80;;;2.90;;
6973;SDS011;3527;52.376;8.990;2023-09-30T11:03:50;7.73;;;3.53;;
6973;SDS011;3527;52.376;8.990;2023-09-30T11:06:24;6.43;;;2.93;;
6973;SDS011;3527;52.376;8.990;2023-09-30T11:08:59;10.23;;;3.13;;
6973;SDS011;3527;52.376;8.990;2023-09-30T11:11:34;10.00;;;2.90;;
6973;SDS011;3527;52.376;8.990;2023-09-30T11:14:22;8.17;;;3.40;;
6973;SDS011;3527;52.376;8.990;2023-09-30T11:16:56;7.70;;;2.83;;
6973;SDS011;3527;52.376;8.990;2023-09-30T11:19:25;4.50;;;2.40;;
6973;SDS011;3527;52.376;8.990;2023-09-30T11:21:54;4.97;;;2.33;;
6973;SDS011;3527;52.376;8.990;2023-09-30T11:24:21;4.73;;;2.30;;
6973;SDS011;3527;52.376;8.990;2023-09-30T11:26:52;5.03;;;2.47;;
6973;SDS011;3527;52.376;8.990;2023-09-30T11:29:20;8.47;;;2.80;;
6973;SDS011;3527;52.376;8.990;2023-09-30T11:31:47;7.83;;;2.53;;
6973;SDS011;3527;52.376;8.990;2023-09-30T11:34:15;8.10;;;2.73;;
6973;SDS011;3527;52.376;8.990;2023-09-30T11:36:49;5.90;;;2.80;;
6973;SDS011;3527;52.376;8.990;2023-09-30T11:39:24;6.83;;;2.57;;
6973;SDS011;3527;52.376;8.990;2023-09-30T11:41:53;6.33;;;2.37;;
6973;SDS011;3527;52.376;8.990;2023-09-30T11:44:21;6.37;;;2.90;;
6973;SDS011;3527;52.376;8.990;2023-09-30T11:46:52;7.80;;;2.97;;
6973;SDS011;3527;52.376;8.990;2023-09-30T11:52:06;7.03;;;2.53;;
6973;SDS011;3527;52.376;8.990;2023-09-30T11:57:11;7.00;;;3.03;;
6973;SDS011;3527;52.376;8.990;2023-09-30T11:59:42;6.33;;;2.60;;
6973;SDS011;3527;52.376;8.990;2023-09-30T12:02:13;7.57;;;2.70;;
6973;SDS011;3527;52.376;8.990;2023-09-30T12:04:42;6.77;;;2.70;;
6973;SDS011;3527;52.376;8.990;2023-09-30T12:07:11;7.20;;;2.50;;
6973;SDS011;3527;52.376;8.990;2023-09-30T12:09:39;7.43;;;2.77;;
6973;SDS011;3527;52.376;8.990;2023-09-30T12:12:07;6.10;;;2.60;;
6973;SDS011;3527;52.376;8.990;2023-09-30T12:14:37;7.53;;;2.40;;
6973;SDS011;3527;52.376;8.990;2023-09-30T12:17:04;9.40;;;3.40;;
6973;SDS011;3527;52.376;8.990;2023-09-30T12:19:31;5.83;;;2.57;;
6973;SDS011;3527;52.376;8.990;2023-09-30T12:21:58;6.57;;;2.70;;
6973;SDS011;3527;52.376;8.990;2023-09-30T12:24:25;7.43;;;2.23;;
6973;SDS011;3527;52.376;8.990;2023-09-30T12:26:53;6.77;;;2.87;;
6973;SDS011;3527;52.376;8.990;2023-09-30T12:29:21;6.03;;;2.30;;
6973;SDS011;3527;52.376;8.990;2023-09-30T12:31:51;5.50;;;2.70;;
6973;SDS011;3527;52.376;8.990;2023-09-30T12:34:21;5.67;;;2.20;;
6973;SDS011;3527;52.376;8.990;2023-09-30T12:36:53;6.30;;;2.63;;
6973;SDS011;3527;52.376;8.990;2023-09-30T12:39:21;4.77;;;2.10;;
6973;SDS011;3527;52.376;8.990;2023-09-30T12:41:52;8.33;;;2.63;;
6973;SDS011;3527;52.376;8.990;2023-09-30T12:44:19;4.43;;;2.03;;
6973;SDS011;3527;52.376;8.990;2023-09-30T12:46:46;5.23;;;2.53;;
6973;SDS011;3527;52.376;8.990;2023-09-30T12:49:14;7.20;;;2.30;;
6973;SDS011;3527;52.376;8.990;2023-09-30T12:51:41;6.73;;;2.67;;
6973;SDS011;3527;52.376;8.990;2023-09-30T12:54:09;7.57;;;2.90;;
6973;SDS011;3527;52.376;8.990;2023-09-30T12:56:37;7.93;;;2.63;;
6973;SDS011;3527;52.376;8.990;2023-09-30T12:59:04;6.87;;;2.50;;
6973;SDS011;3527;52.376;8.990;2023-09-30T13:01:31;5.13;;;2.73;;
6973;SDS011;3527;52.376;8.990;2023-09-30T13:04:02;7.43;;;2.40;;
6973;SDS011;3527;52.376;8.990;2023-09-30T13:06:29;7.87;;;2.50;;
6973;SDS011;3527;52.376;8.990;2023-09-30T13:08:59;6.13;;;2.60;;
6973;SDS011;3527;52.376;8.990;2023-09-30T13:11:26;6.67;;;2.23;;
6973;SDS011;3527;52.376;8.990;2023-09-30T13:13:54;8.40;;;2.80;;
6973;SDS011;3527;52.376;8.990;2023-09-30T13:16:21;8.70;;;2.70;;
6973;SDS011;3527;52.376;8.990;2023-09-30T13:18:49;6.23;;;2.60;;
6973;SDS011;3527;52.376;8.990;2023-09-30T13:21:18;6.40;;;2.70;;
6973;SDS011;3527;52.376;8.990;2023-09-30T13:23:46;7.53;;;2.60;;
6973;SDS011;3527;52.376;8.990;2023-09-30T13:26:12;5.77;;;2.50;;
6973;SDS011;3527;52.376;8.990;2023-09-30T13:28:39;10.30;;;3.00;;
6973;SDS011;3527;52.376;8.990;2023-09-30T13:31:06;7.30;;;3.03;;
6973;SDS011;3527;52.376;8.990;2023-09-30T13:33:33;7.30;;;3.00;;
6973;SDS011;3527;52.376;8.990;2023-09-30T13:36:00;8.03;;;2.80;;
6973;SDS011;3527;52.376;8.990;2023-09-30T13:38:29;6.23;;;2.80;;
6973;SDS011;3527;52.376;8.990;2023-09-30T13:40:56;6.60;;;2.70;;
6973;SDS011;3527;52.376;8.990;2023-09-30T13:43:22;5.17;;;2.73;;
6973;SDS011;3527;52.376;8.990;2023-09-30T13:45:49;5.07;;;2.73;;
6973;SDS011;3527;52.376;8.990;2023-09-30T13:48:17;8.27;;;2.67;;
6973;SDS011;3527;52.376;8.990;2023-09-30T13:50:44;8.07;;;2.90;;
6973;SDS011;3527;52.376;8.990;2023-09-30T13:53:11;8.60;;;3.30;;
6973;SDS011;3527;52.376;8.990;2023-09-30T13:55:38;8.80;;;3.00;;
6973;SDS011;3527;52.376;8.990;2023-09-30T13:58:05;8.20;;;2.70;;
6973;SDS011;3527;52.376;8.990;2023-09-30T14:00:33;6.53;;;2.87;;
6973;SDS011;3527;52.376;8.990;2023-09-30T14:03:00;7.17;;;2.80;;
6973;SDS011;3527;52.376;8.990;2023-09-30T14:05:27;5.17;;;2.80;;
6973;SDS011;3527;52.376;8.990;2023-09-30T14:07:54;8.57;;;2.80;;
6973;SDS011;3527;52.376;8.990;2023-09-30T14:10:21;6.87;;;2.80;;
6973;SDS011;3527;52.376;8.990;2023-09-30T14:12:48;6.60;;;2.50;;
6973;SDS011;3527;52.376;8.990;2023-09-30T14:15:15;5.77;;;2.67;;
6973;SDS011;3527;52.376;8.990;2023-09-30T14:17:42;8.67;;;3.00;;
6973;SDS011;3527;52.376;8.990;2023-09-30T14:20:09;7.40;;;3.00;;
6973;SDS011;3527;52.376;8.990;2023-09-30T14:22:36;8.97;;;3.10;;
6973;SDS011;3527;52.376;8.990;2023-09-30T14:25:03;9.17;;;3.30;;
6973;SDS011;3527;52.376;8.990;2023-09-30T14:27:30;7.37;;;3.27;;
6973;SDS011;3527;52.376;8.990;2023-09-30T14:29:57;5.13;;;2.50;;
6973;SDS011;3527;52.376;8.990;2023-09-30T14:32:24;5.67;;;2.80;;
6973;SDS011;3527;52.376;8.990;2023-09-30T14:34:51;5.07;;;2.83;;
6973;SDS011;3527;52.376;8.990;2023-09-30T14:37:18;5.43;;;2.67;;
6973;SDS011;3527;52.376;8.990;2023-09-30T14:39:45;4.83;;;2.30;;
6973;SDS011;3527;52.376;8.990;2023-09-30T14:42:12;8.63;;;2.97;;
6973;SDS011;3527;52.376;8.990;2023-09-30T14:44:39;7.47;;;2.80;;
6973;SDS011;3527;52.376;8.990;2023-09-30T14:47:05;4.33;;;2.60;;
6973;SDS011;3527;52.376;8.990;2023-09-30T14:49:32;6.47;;;3.20;;
6973;SDS011;3527;52.376;8.990;2023-09-30T14:51:59;6.47;;;2.77;;
6973;SDS011;3527;52.376;8.990;2023-09-30T14:54:26;5.43;;;2.70;;
6973;SDS011;3527;52.376;8.990;2023-09-30T14:56:53;5.73;;;2.70;;
6973;SDS011;3527;52.376;8.990;2023-09-30T14:59:20;9.10;;;3.17;;
6973;SDS011;3527;52.376;8.990;2023-09-30T15:01:47;8.03;;;3.10;;
6973;SDS011;3527;52.376;8.990;2023-09-30T15:04:15;8.47;;;2.90;;
6973;SDS011;3527;52.376;8.990;2023-09-30T15:06:42;7.03;;;2.87;;
6973;SDS011;3527;52.376;8.990;2023-09-30T15:09:09;7.93;;;3.27;;
6973;SDS011;3527;52.376;8.990;2023-09-30T15:11:38;7.83;;;3.40;;
6973;SDS011;3527;52.376;8.990;2023-09-30T15:14:06;7.20;;;3.30;;
6973;SDS011;3527;52.376;8.990;2023-09-30T15:16:33;5.10;;;2.50;;
6973;SDS011;3527;52.376;8.990;2023-09-30T15:19:02;8.27;;;2.93;;
6973;SDS011;3527;52.376;8.990;2023-09-30T15:21:29;9.07;;;3.20;;
6973;SDS011;3527;52.376;8.990;2023-09-30T15:23:56;8.27;;;2.73;;
6973;SDS011;3527;52.376;8.990;2023-09-30T15:26:22;6.70;;;3.00;;
6973;SDS011;3527;52.376;8.990;2023-09-30T15:28:49;6.00;;;3.10;;
6973;SDS011;3527;52.376;8.990;2023-09-30T15:31:16;7.53;;;3.17;;
6973;SDS011;3527;52.376;8.990;2023-09-30T15:33:43;7.47;;;2.80;;
6973;SDS011;3527;52.376;8.990;2023-09-30T15:38:38;6.70;;;2.70;;